createdAt,value
2014-08-05T08:57:53.654Z,782
2014-08-05T08:58:11.982Z,782
2014-08-05T08:58:30.310Z,782
2014-08-05T08:58:48.656Z,782
2014-08-05T08:59:06.968Z,782
2014-08-05T08:59:25.312Z,782
2014-08-05T08:59:43.640Z,781
2014-08-05T09:00:01.970Z,780
2014-08-05T09:00:20.314Z,780
2014-08-05T09:00:38.642Z,781
2014-08-05T09:00:56.972Z,781
2014-08-05T09:01:15.300Z,782
2014-08-05T09:01:33.628Z,782
2014-08-05T09:01:51.958Z,782
2014-08-05T09:02:10.302Z,782
2014-08-05T09:02:28.630Z,782
2014-08-05T09:02:46.958Z,782
2014-08-05T09:03:05.304Z,782
2014-08-05T09:03:23.632Z,782
2014-08-05T09:03:41.960Z,783
2014-08-05T09:04:00.494Z,783
2014-08-05T09:04:18.619Z,783
2014-08-05T09:04:36.962Z,783
2014-08-05T09:04:55.293Z,783
2014-08-05T09:05:13.621Z,783
2014-08-05T09:05:31.949Z,783
2014-08-05T09:05:50.277Z,783
2014-08-05T09:06:08.607Z,783
2014-08-05T09:06:26.935Z,783
2014-08-05T09:06:45.279Z,783
2014-08-05T09:07:03.609Z,783
2014-08-05T09:07:21.937Z,783
2014-08-05T09:07:40.265Z,783
2014-08-05T09:07:58.627Z,783
2014-08-05T09:08:16.955Z,783
2014-08-05T09:08:35.283Z,783
2014-08-05T09:08:53.613Z,783
2014-08-05T09:09:12.004Z,783
2014-08-05T09:09:30.347Z,782
2014-08-05T09:09:48.691Z,782
2014-08-05T09:10:07.020Z,783
2014-08-05T09:10:25.348Z,782
2014-08-05T09:10:43.677Z,782
2014-08-05T09:11:02.007Z,782
2014-08-05T09:11:20.350Z,782
2014-08-05T09:11:38.679Z,782
2014-08-05T09:11:57.009Z,782
2014-08-05T09:12:15.337Z,782
2014-08-05T09:12:33.665Z,782
2014-08-05T09:12:51.993Z,782
2014-08-05T09:13:10.340Z,782
2014-08-05T09:13:28.668Z,782
2014-08-05T09:13:46.996Z,782
2014-08-05T09:14:05.326Z,782
2014-08-05T09:14:23.654Z,782
2014-08-05T09:14:41.998Z,782
2014-08-05T09:15:00.327Z,782
2014-08-05T09:15:18.655Z,782
2014-08-05T09:15:36.983Z,782
2014-08-05T09:15:55.314Z,782
2014-08-05T09:16:13.642Z,781
2014-08-05T09:16:31.985Z,781
2014-08-05T09:16:50.314Z,782
2014-08-05T09:17:08.644Z,782
2014-08-05T09:17:26.987Z,782
2014-08-05T09:17:45.300Z,782
2014-08-05T09:18:03.646Z,782
2014-08-05T09:18:21.974Z,782
2014-08-05T09:18:40.302Z,782
2014-08-05T09:18:58.614Z,782
2014-08-05T09:19:16.976Z,782
2014-08-05T09:19:35.304Z,782
2014-08-05T09:19:53.632Z,783
2014-08-05T09:20:11.962Z,783
2014-08-05T09:20:30.493Z,783
2014-08-05T09:20:48.634Z,783
2014-08-05T09:21:06.964Z,783
2014-08-05T09:21:25.292Z,783
2014-08-05T09:21:43.620Z,783
2014-08-05T09:22:01.966Z,783
2014-08-05T09:22:20.294Z,783
2014-08-05T09:22:38.622Z,783
2014-08-05T09:22:56.935Z,783
2014-08-05T09:23:15.281Z,783
2014-08-05T09:23:33.593Z,783
2014-08-05T09:23:51.937Z,783
2014-08-05T09:24:10.266Z,783
2014-08-05T09:24:28.594Z,784
2014-08-05T09:24:46.922Z,783
2014-08-05T09:25:05.253Z,783
2014-08-05T09:25:23.582Z,783
2014-08-05T09:25:41.910Z,784
2014-08-05T09:26:00.238Z,783
2014-08-05T09:26:18.568Z,784
2014-08-05T09:26:36.896Z,784
2014-08-05T09:26:55.240Z,784
2014-08-05T09:27:13.570Z,784
2014-08-05T09:27:31.898Z,784
2014-08-05T09:27:50.226Z,784
2014-08-05T09:28:08.555Z,784
2014-08-05T09:28:26.899Z,784
2014-08-05T09:28:45.227Z,784
2014-08-05T09:29:03.555Z,784
2014-08-05T09:29:21.885Z,784
2014-08-05T09:29:40.214Z,784
2014-08-05T09:29:58.557Z,784
2014-08-05T09:30:16.887Z,784
2014-08-05T09:30:35.216Z,784
2014-08-05T09:30:53.559Z,784
2014-08-05T09:31:11.889Z,785
2014-08-05T09:31:30.218Z,784
2014-08-05T09:31:48.546Z,784
2014-08-05T09:32:06.874Z,785
2014-08-05T09:32:25.221Z,785
2014-08-05T09:32:43.549Z,785
2014-08-05T09:33:01.877Z,785
2014-08-05T09:33:20.206Z,784
2014-08-05T09:33:38.550Z,784
2014-08-05T09:33:56.878Z,784
2014-08-05T09:34:15.209Z,785
2014-08-05T09:34:33.537Z,785
2014-08-05T09:34:51.865Z,784
2014-08-05T09:35:10.209Z,784
2014-08-05T09:35:28.539Z,785
2014-08-05T09:35:46.867Z,785
2014-08-05T09:36:05.195Z,785
2014-08-05T09:36:23.541Z,785
2014-08-05T09:36:41.869Z,785
2014-08-05T09:37:00.197Z,785
2014-08-05T09:37:18.543Z,785
2014-08-05T09:37:36.871Z,785
2014-08-05T09:37:55.199Z,785
2014-08-05T09:38:13.527Z,785
2014-08-05T09:38:31.857Z,785
2014-08-05T09:38:50.185Z,785
2014-08-05T09:39:08.497Z,785
2014-08-05T09:39:26.860Z,785
2014-08-05T09:39:45.188Z,785
2014-08-05T09:40:03.531Z,785
2014-08-05T09:40:21.861Z,785
2014-08-05T09:40:40.189Z,785
2014-08-05T09:40:58.517Z,785
2014-08-05T09:41:16.861Z,785
2014-08-05T09:41:35.191Z,784
2014-08-05T09:41:53.519Z,784
2014-08-05T09:42:11.847Z,784
2014-08-05T09:42:30.177Z,784
2014-08-05T09:42:48.521Z,784
2014-08-05T09:43:06.849Z,784
2014-08-05T09:43:25.195Z,784
2014-08-05T09:43:43.523Z,784
2014-08-05T09:44:01.851Z,784
2014-08-05T09:44:20.195Z,784
2014-08-05T09:44:38.525Z,784
2014-08-05T09:44:56.853Z,784
2014-08-05T09:45:15.197Z,784
2014-08-05T09:45:33.527Z,785
2014-08-05T09:45:51.855Z,785
2014-08-05T09:46:10.183Z,784
2014-08-05T09:46:28.529Z,784
2014-08-05T09:46:46.857Z,784
2014-08-05T09:47:05.185Z,784
2014-08-05T09:47:23.513Z,784
2014-08-05T09:47:41.842Z,784
2014-08-05T09:48:00.170Z,784
2014-08-05T09:48:18.499Z,784
2014-08-05T09:48:36.845Z,784
2014-08-05T09:48:55.173Z,783
2014-08-05T09:49:13.517Z,783
2014-08-05T09:49:31.846Z,783
2014-08-05T09:49:50.174Z,783
2014-08-05T09:50:08.503Z,783
2014-08-05T09:50:26.846Z,783
2014-08-05T09:50:45.176Z,783
2014-08-05T09:51:03.505Z,783
2014-08-05T09:51:21.833Z,783
2014-08-05T09:51:40.163Z,783
2014-08-05T09:51:58.694Z,783
2014-08-05T09:52:16.835Z,784
2014-08-05T09:52:35.165Z,784
2014-08-05T09:52:53.509Z,784
2014-08-05T09:53:11.837Z,784
2014-08-05T09:53:30.180Z,784
2014-08-05T09:53:48.511Z,784
2014-08-05T09:54:06.932Z,784
2014-08-05T09:54:25.214Z,784
2014-08-05T09:54:43.591Z,784
2014-08-05T09:55:01.919Z,784
2014-08-05T09:55:20.247Z,784
2014-08-05T09:55:38.578Z,784
2014-08-05T09:55:56.922Z,784
2014-08-05T09:56:15.250Z,784
2014-08-05T09:56:33.781Z,784
2014-08-05T09:56:51.924Z,784
2014-08-05T09:57:10.252Z,784
2014-08-05T09:57:28.580Z,784
2014-08-05T09:57:46.910Z,784
2014-08-05T09:58:05.254Z,784
2014-08-05T09:58:23.582Z,784
2014-08-05T09:58:41.927Z,784
2014-08-05T09:59:00.255Z,784
2014-08-05T09:59:18.599Z,784
2014-08-05T09:59:36.927Z,784
2014-08-05T09:59:55.257Z,784
2014-08-05T10:00:13.585Z,784
2014-08-05T10:00:31.913Z,784
2014-08-05T10:00:50.259Z,784
2014-08-05T10:01:08.587Z,784
2014-08-05T10:01:26.915Z,784
2014-08-05T10:01:45.245Z,784
2014-08-05T10:02:03.573Z,784
2014-08-05T10:02:21.917Z,784
2014-08-05T10:02:40.245Z,784
2014-08-05T10:02:58.575Z,784
2014-08-05T10:03:16.904Z,785
2014-08-05T10:03:35.325Z,785
2014-08-05T10:03:53.656Z,785
2014-08-05T10:04:11.984Z,785
2014-08-05T10:04:30.327Z,785
2014-08-05T10:04:48.658Z,785
2014-08-05T10:05:06.986Z,785
2014-08-05T10:05:25.329Z,785
2014-08-05T10:05:43.673Z,785
2014-08-05T10:06:02.019Z,785
2014-08-05T10:06:20.347Z,785
2014-08-05T10:06:38.878Z,785
2014-08-05T10:06:57.021Z,785
2014-08-05T10:07:15.349Z,785
2014-08-05T10:07:33.677Z,785
2014-08-05T10:07:52.007Z,785
2014-08-05T10:08:10.351Z,785
2014-08-05T10:08:28.679Z,785
2014-08-05T10:08:47.007Z,785
2014-08-05T10:09:05.337Z,785
2014-08-05T10:09:23.681Z,785
2014-08-05T10:09:42.009Z,785
2014-08-05T10:10:00.339Z,784
2014-08-05T10:10:18.683Z,784
2014-08-05T10:10:37.011Z,784
2014-08-05T10:10:55.341Z,784
2014-08-05T10:11:13.685Z,784
2014-08-05T10:11:32.013Z,784
2014-08-05T10:11:50.342Z,784
2014-08-05T10:12:08.671Z,784
2014-08-05T10:12:27.202Z,783
2014-08-05T10:12:45.327Z,783
2014-08-05T10:13:03.674Z,783
2014-08-05T10:13:22.002Z,783
2014-08-05T10:13:40.345Z,783
2014-08-05T10:13:58.676Z,783
2014-08-05T10:14:17.004Z,783
2014-08-05T10:14:35.332Z,783
2014-08-05T10:14:53.662Z,783
2014-08-05T10:15:11.990Z,782
2014-08-05T10:15:30.334Z,782
2014-08-05T10:15:48.662Z,783
2014-08-05T10:16:06.992Z,782
2014-08-05T10:16:25.336Z,782
2014-08-05T10:16:43.664Z,782
2014-08-05T10:17:01.994Z,782
2014-08-05T10:17:20.338Z,782
2014-08-05T10:17:38.666Z,782
2014-08-05T10:17:56.995Z,782
2014-08-05T10:18:15.323Z,782
2014-08-05T10:18:33.651Z,782
2014-08-05T10:18:51.979Z,782
2014-08-05T10:19:10.310Z,782
2014-08-05T10:19:28.638Z,782
2014-08-05T10:19:46.981Z,782
2014-08-05T10:20:05.312Z,782
2014-08-05T10:20:23.843Z,782
2014-08-05T10:20:41.968Z,782
2014-08-05T10:21:00.314Z,782
2014-08-05T10:21:18.642Z,782
2014-08-05T10:21:36.970Z,782
2014-08-05T10:21:55.298Z,782
2014-08-05T10:22:13.628Z,782
2014-08-05T10:22:31.956Z,782
2014-08-05T10:22:50.284Z,782
2014-08-05T10:23:08.630Z,782
2014-08-05T10:23:26.958Z,782
2014-08-05T10:23:45.286Z,782
2014-08-05T10:24:03.616Z,782
2014-08-05T10:24:21.960Z,782
2014-08-05T10:24:40.288Z,782
2014-08-05T10:24:58.616Z,782
2014-08-05T10:25:16.946Z,782
2014-08-05T10:25:35.289Z,782
2014-08-05T10:25:53.617Z,782
2014-08-05T10:26:11.949Z,782
2014-08-05T10:26:30.277Z,782
2014-08-05T10:26:48.620Z,782
2014-08-05T10:27:06.935Z,783
2014-08-05T10:27:25.279Z,783
2014-08-05T10:27:43.607Z,783
2014-08-05T10:28:01.935Z,783
2014-08-05T10:28:20.265Z,783
2014-08-05T10:28:38.609Z,783
2014-08-05T10:28:56.937Z,783
2014-08-05T10:29:15.267Z,783
2014-08-05T10:29:33.595Z,783
2014-08-05T10:29:51.939Z,784
2014-08-05T10:30:10.269Z,784
2014-08-05T10:30:28.597Z,784
2014-08-05T10:30:46.925Z,784
2014-08-05T10:31:05.271Z,784
2014-08-05T10:31:23.599Z,784
2014-08-05T10:31:41.927Z,784
2014-08-05T10:32:00.255Z,784
2014-08-05T10:32:18.601Z,784
2014-08-05T10:32:36.929Z,784
2014-08-05T10:32:55.257Z,784
2014-08-05T10:33:13.588Z,784
2014-08-05T10:33:31.931Z,784
2014-08-05T10:33:50.259Z,785
2014-08-05T10:34:08.589Z,785
2014-08-05T10:34:26.917Z,784
2014-08-05T10:34:45.245Z,784
2014-08-05T10:35:03.573Z,784
2014-08-05T10:35:21.919Z,784
2014-08-05T10:35:40.247Z,784
2014-08-05T10:35:58.575Z,784
2014-08-05T10:36:16.922Z,784
2014-08-05T10:36:35.250Z,784
2014-08-05T10:36:53.578Z,784
2014-08-05T10:37:11.908Z,784
2014-08-05T10:37:30.236Z,784
2014-08-05T10:37:48.564Z,784
2014-08-05T10:38:06.908Z,784
2014-08-05T10:38:25.237Z,784
2014-08-05T10:38:43.565Z,784
2014-08-05T10:39:01.909Z,784
2014-08-05T10:39:20.239Z,784
2014-08-05T10:39:38.567Z,785
2014-08-05T10:39:56.895Z,785
2014-08-05T10:40:15.226Z,785
2014-08-05T10:40:33.569Z,785
2014-08-05T10:40:51.897Z,785
2014-08-05T10:41:10.226Z,784
2014-08-05T10:41:28.556Z,784
2014-08-05T10:41:46.899Z,784
2014-08-05T10:42:05.228Z,784
2014-08-05T10:42:23.558Z,784
2014-08-05T10:42:41.901Z,784
2014-08-05T10:43:00.230Z,785
2014-08-05T10:43:18.560Z,784
2014-08-05T10:43:36.888Z,785
2014-08-05T10:43:55.216Z,784
2014-08-05T10:44:13.544Z,784
2014-08-05T10:44:31.890Z,784
2014-08-05T10:44:50.218Z,784
2014-08-05T10:45:08.562Z,784
2014-08-05T10:45:26.891Z,784
2014-08-05T10:45:45.219Z,784
2014-08-05T10:46:03.547Z,784
2014-08-05T10:46:21.894Z,784
2014-08-05T10:46:40.222Z,784
2014-08-05T10:46:58.753Z,784
2014-08-05T10:47:16.894Z,784
2014-08-05T10:47:35.224Z,784
2014-08-05T10:47:53.552Z,784
2014-08-05T10:48:12.083Z,784
2014-08-05T10:48:30.225Z,784
2014-08-05T10:48:48.553Z,784
2014-08-05T10:49:06.897Z,784
2014-08-05T10:49:25.212Z,784
2014-08-05T10:49:43.556Z,784
2014-08-05T10:50:01.900Z,785
2014-08-05T10:50:20.228Z,785
2014-08-05T10:50:38.557Z,785
2014-08-05T10:50:56.885Z,785
2014-08-05T10:51:15.229Z,785
2014-08-05T10:51:33.559Z,785
2014-08-05T10:51:51.887Z,785
2014-08-05T10:52:10.215Z,785
2014-08-05T10:52:28.561Z,785
2014-08-05T10:52:46.889Z,785
2014-08-05T10:53:05.217Z,785
2014-08-05T10:53:23.561Z,785
2014-08-05T10:53:41.892Z,785
2014-08-05T10:54:00.236Z,785
2014-08-05T10:54:18.564Z,785
2014-08-05T10:54:36.893Z,785
2014-08-05T10:54:55.221Z,785
2014-08-05T10:55:13.549Z,785
2014-08-05T10:55:31.881Z,785
2014-08-05T10:55:50.224Z,785
2014-08-05T10:56:08.552Z,785
2014-08-05T10:56:26.881Z,785
2014-08-05T10:56:45.211Z,785
2014-08-05T10:57:03.554Z,785
2014-08-05T10:57:21.883Z,785
2014-08-05T10:57:40.213Z,785
2014-08-05T10:57:58.541Z,785
2014-08-05T10:58:16.885Z,785
2014-08-05T10:58:35.214Z,785
2014-08-05T10:58:53.542Z,785
2014-08-05T10:59:11.870Z,785
2014-08-05T10:59:30.198Z,785
2014-08-05T10:59:48.528Z,785
2014-08-05T11:00:06.872Z,785
2014-08-05T11:00:25.200Z,785
2014-08-05T11:00:43.530Z,785
2014-08-05T11:01:01.858Z,785
2014-08-05T11:01:20.186Z,785
2014-08-05T11:01:38.515Z,784
2014-08-05T11:01:56.846Z,785
2014-08-05T11:02:15.189Z,785
2014-08-05T11:02:33.518Z,784
2014-08-05T11:02:51.847Z,784
2014-08-05T11:03:10.175Z,784
2014-08-05T11:03:28.519Z,784
2014-08-05T11:03:46.849Z,784
2014-08-05T11:04:05.177Z,784
2014-08-05T11:04:23.521Z,784
2014-08-05T11:04:41.849Z,784
2014-08-05T11:05:00.179Z,784
2014-08-05T11:05:18.523Z,784
2014-08-05T11:05:36.835Z,784
2014-08-05T11:05:55.181Z,784
2014-08-05T11:06:13.509Z,783
2014-08-05T11:06:31.853Z,783
2014-08-05T11:06:50.183Z,783
2014-08-05T11:07:08.527Z,783
2014-08-05T11:07:26.855Z,783
2014-08-05T11:07:45.183Z,783
2014-08-05T11:08:03.514Z,783
2014-08-05T11:08:21.811Z,783
2014-08-05T11:08:40.170Z,783
2014-08-05T11:08:58.515Z,783
2014-08-05T11:09:16.843Z,783
2014-08-05T11:09:35.171Z,783
2014-08-05T11:09:53.515Z,783
2014-08-05T11:10:11.845Z,783
2014-08-05T11:10:30.173Z,783
2014-08-05T11:10:48.501Z,783
2014-08-05T11:11:06.831Z,783
2014-08-05T11:11:25.160Z,783
2014-08-05T11:11:43.503Z,783
2014-08-05T11:12:01.833Z,783
2014-08-05T11:12:20.162Z,783
2014-08-05T11:12:38.490Z,783
2014-08-05T11:12:56.833Z,783
2014-08-05T11:13:15.164Z,783
2014-08-05T11:13:33.492Z,783
2014-08-05T11:13:51.835Z,783
2014-08-05T11:14:10.166Z,782
2014-08-05T11:14:28.494Z,782
2014-08-05T11:14:46.837Z,782
2014-08-05T11:15:05.168Z,782
2014-08-05T11:15:23.496Z,782
2014-08-05T11:15:41.824Z,782
2014-08-05T11:16:00.168Z,782
2014-08-05T11:16:18.482Z,783
2014-08-05T11:16:36.826Z,783
2014-08-05T11:16:55.154Z,783
2014-08-05T11:17:13.500Z,783
2014-08-05T11:17:31.828Z,783
2014-08-05T11:17:50.156Z,783
2014-08-05T11:18:08.486Z,783
2014-08-05T11:18:26.814Z,784
2014-08-05T11:18:45.158Z,784
2014-08-05T11:19:03.486Z,784
2014-08-05T11:19:21.816Z,784
2014-08-05T11:19:40.160Z,784
2014-08-05T11:19:58.691Z,784
2014-08-05T11:20:16.818Z,784
2014-08-05T11:20:35.162Z,784
2014-08-05T11:20:53.490Z,784
2014-08-05T11:21:11.818Z,784
2014-08-05T11:21:30.164Z,784
2014-08-05T11:21:48.492Z,784
2014-08-05T11:22:06.820Z,784
2014-08-05T11:22:25.149Z,784
2014-08-05T11:22:43.493Z,784
2014-08-05T11:23:01.837Z,784
2014-08-05T11:23:20.167Z,784
2014-08-05T11:23:38.495Z,784
2014-08-05T11:23:56.839Z,784
2014-08-05T11:24:15.170Z,784
2014-08-05T11:24:33.514Z,784
2014-08-05T11:24:51.842Z,784
2014-08-05T11:25:10.170Z,784
2014-08-05T11:25:28.500Z,784
2014-08-05T11:25:46.828Z,784
2014-08-05T11:26:05.156Z,784
2014-08-05T11:26:23.485Z,783
2014-08-05T11:26:41.814Z,784
2014-08-05T11:27:00.157Z,783
2014-08-05T11:27:18.472Z,783
2014-08-05T11:27:36.800Z,783
2014-08-05T11:27:55.503Z,783
2014-08-05T11:28:13.644Z,783
2014-08-05T11:28:31.975Z,783
2014-08-05T11:28:50.303Z,783
2014-08-05T11:29:08.631Z,783
2014-08-05T11:29:26.976Z,783
2014-08-05T11:29:45.491Z,783
2014-08-05T11:30:03.632Z,783
2014-08-05T11:30:22.163Z,783
2014-08-05T11:30:40.291Z,783
2014-08-05T11:30:58.619Z,783
2014-08-05T11:31:16.948Z,783
2014-08-05T11:31:35.277Z,783
2014-08-05T11:31:53.605Z,783
2014-08-05T11:32:11.933Z,783
2014-08-05T11:32:30.261Z,783
2014-08-05T11:32:48.592Z,783
2014-08-05T11:33:06.920Z,783
2014-08-05T11:33:25.248Z,783
2014-08-05T11:33:43.579Z,783
2014-08-05T11:34:01.922Z,783
2014-08-05T11:34:20.250Z,783
2014-08-05T11:34:38.581Z,783
2014-08-05T11:34:56.909Z,783
2014-08-05T11:35:15.237Z,784
2014-08-05T11:35:33.769Z,784
2014-08-05T11:35:51.925Z,784
2014-08-05T11:36:10.238Z,784
2014-08-05T11:36:28.582Z,784
2014-08-05T11:36:46.912Z,784
2014-08-05T11:37:05.443Z,784
2014-08-05T11:37:23.568Z,784
2014-08-05T11:37:42.101Z,784
2014-08-05T11:38:00.242Z,784
2014-08-05T11:38:18.570Z,784
2014-08-05T11:38:36.901Z,784
2014-08-05T11:38:55.432Z,784
2014-08-05T11:39:13.573Z,784
2014-08-05T11:39:31.901Z,784
2014-08-05T11:39:50.231Z,784
2014-08-05T11:40:08.559Z,784
2014-08-05T11:40:26.903Z,785
2014-08-05T11:40:45.232Z,785
2014-08-05T11:41:03.560Z,785
2014-08-05T11:41:21.888Z,785
2014-08-05T11:41:40.219Z,785
2014-08-05T11:41:58.562Z,785
2014-08-05T11:42:16.890Z,785
2014-08-05T11:42:35.219Z,785
2014-08-05T11:42:53.549Z,785
2014-08-05T11:43:11.892Z,784
2014-08-05T11:43:30.221Z,784
2014-08-05T11:43:48.551Z,784
2014-08-05T11:44:06.863Z,784
2014-08-05T11:44:25.207Z,784
2014-08-05T11:44:43.537Z,784
2014-08-05T11:45:01.865Z,784
2014-08-05T11:45:20.193Z,784
2014-08-05T11:45:38.521Z,784
2014-08-05T11:45:56.852Z,784
2014-08-05T11:46:15.195Z,783
2014-08-05T11:46:33.523Z,783
2014-08-05T11:46:51.853Z,783
2014-08-05T11:47:10.181Z,783
2014-08-05T11:47:28.524Z,783
2014-08-05T11:47:46.856Z,783
2014-08-05T11:48:05.199Z,783
2014-08-05T11:48:23.527Z,783
2014-08-05T11:48:41.856Z,783
2014-08-05T11:49:00.186Z,783
2014-08-05T11:49:18.529Z,783
2014-08-05T11:49:36.858Z,782
2014-08-05T11:49:55.187Z,782
2014-08-05T11:50:13.515Z,782
2014-08-05T11:50:31.859Z,782
2014-08-05T11:50:50.189Z,782
2014-08-05T11:51:08.720Z,782
2014-08-05T11:51:26.845Z,782
2014-08-05T11:51:45.173Z,782
2014-08-05T11:52:03.520Z,782
2014-08-05T11:52:21.848Z,782
2014-08-05T11:52:40.176Z,782
2014-08-05T11:52:58.505Z,782
2014-08-05T11:53:16.833Z,782
2014-08-05T11:53:35.177Z,782
2014-08-05T11:53:53.507Z,782
2014-08-05T11:54:11.835Z,782
2014-08-05T11:54:30.179Z,782
2014-08-05T11:54:48.509Z,782
2014-08-05T11:55:06.837Z,782
2014-08-05T11:55:25.181Z,782
2014-08-05T11:55:43.509Z,782
2014-08-05T11:56:01.839Z,782
2014-08-05T11:56:20.183Z,782
2014-08-05T11:56:38.511Z,782
2014-08-05T11:56:56.841Z,782
2014-08-05T11:57:15.169Z,782
2014-08-05T11:57:33.498Z,782
2014-08-05T11:57:51.843Z,782
2014-08-05T11:58:10.171Z,782
2014-08-05T11:58:28.500Z,782
2014-08-05T11:58:46.828Z,782
2014-08-05T11:59:05.158Z,781
2014-08-05T11:59:23.502Z,782
2014-08-05T11:59:41.830Z,782
2014-08-05T12:00:00.175Z,782
2014-08-05T12:00:18.488Z,781
2014-08-05T12:00:36.832Z,782
2014-08-05T12:00:55.162Z,782
2014-08-05T12:01:13.490Z,782
2014-08-05T12:01:31.818Z,782
2014-08-05T12:01:50.146Z,782
2014-08-05T12:02:08.476Z,782
2014-08-05T12:02:26.804Z,782
2014-08-05T12:02:45.148Z,781
2014-08-05T12:03:03.478Z,782
2014-08-05T12:03:21.806Z,782
2014-08-05T12:03:40.135Z,782
2014-08-05T12:03:58.465Z,781
2014-08-05T12:04:16.793Z,781
2014-08-05T12:04:35.121Z,781
2014-08-05T12:04:53.465Z,781
2014-08-05T12:05:11.795Z,781
2014-08-05T12:05:30.123Z,781
2014-08-05T12:05:48.451Z,781
2014-08-05T12:06:06.797Z,781
2014-08-05T12:06:25.125Z,781
2014-08-05T12:06:43.453Z,781
2014-08-05T12:07:01.782Z,781
2014-08-05T12:07:20.110Z,781
2014-08-05T12:07:38.454Z,781
2014-08-05T12:07:56.782Z,781
2014-08-05T12:08:15.112Z,781
2014-08-05T12:08:33.440Z,781
2014-08-05T12:08:51.784Z,781
2014-08-05T12:09:10.115Z,781
2014-08-05T12:09:28.443Z,781
2014-08-05T12:09:46.787Z,781
2014-08-05T12:10:05.116Z,780
2014-08-05T12:10:23.648Z,781
2014-08-05T12:10:41.788Z,780
2014-08-05T12:11:00.116Z,780
2014-08-05T12:11:18.447Z,780
2014-08-05T12:11:36.776Z,780
2014-08-05T12:11:55.119Z,780
2014-08-05T12:12:13.448Z,780
2014-08-05T12:12:31.777Z,780
2014-08-05T12:12:50.105Z,780
2014-08-05T12:13:08.450Z,780
2014-08-05T12:13:26.779Z,780
2014-08-05T12:13:45.107Z,780
2014-08-05T12:14:03.435Z,780
2014-08-05T12:14:21.766Z,780
2014-08-05T12:14:40.094Z,780
2014-08-05T12:14:58.422Z,780
2014-08-05T12:15:19.096Z,780
2014-08-05T12:15:37.424Z,780
2014-08-05T12:15:55.768Z,780
2014-08-05T12:16:14.097Z,780
2014-08-05T12:16:32.425Z,780
2014-08-05T12:16:50.753Z,780
2014-08-05T12:17:09.083Z,780
2014-08-05T12:17:27.427Z,780
2014-08-05T12:17:45.755Z,780
2014-08-05T12:18:04.083Z,780
2014-08-05T12:18:22.429Z,780
2014-08-05T12:18:40.757Z,780
2014-08-05T12:18:59.085Z,779
2014-08-05T12:19:17.431Z,779
2014-08-05T12:19:35.759Z,779
2014-08-05T12:19:54.087Z,774
2014-08-05T12:20:12.418Z,771
2014-08-05T12:20:30.761Z,768
2014-08-05T12:20:49.089Z,766
2014-08-05T12:21:07.418Z,764
2014-08-05T12:21:25.763Z,763
2014-08-05T12:21:44.091Z,761
2014-08-05T12:22:02.623Z,760
2014-08-05T12:22:20.749Z,759
2014-08-05T12:22:39.092Z,757
2014-08-05T12:22:57.421Z,756
2014-08-05T12:23:15.751Z,753
2014-08-05T12:23:34.094Z,751
2014-08-05T12:23:52.438Z,750
2014-08-05T12:24:10.969Z,748
2014-08-05T12:24:29.112Z,748
2014-08-05T12:24:47.440Z,747
2014-08-05T12:25:05.768Z,748
2014-08-05T12:25:24.098Z,747
2014-08-05T12:25:42.427Z,747
2014-08-05T12:26:00.770Z,746
2014-08-05T12:26:19.101Z,744
2014-08-05T12:26:37.430Z,745
2014-08-05T12:26:55.773Z,744
2014-08-05T12:27:14.103Z,747
2014-08-05T12:27:32.447Z,746
2014-08-05T12:27:50.775Z,749
2014-08-05T12:28:09.103Z,749
2014-08-05T12:28:27.433Z,749
2014-08-05T12:28:45.776Z,747
2014-08-05T12:29:04.104Z,750
2014-08-05T12:29:22.435Z,753
2014-08-05T12:29:40.778Z,756
2014-08-05T12:29:59.106Z,762
2014-08-05T12:30:17.437Z,758
2014-08-05T12:30:35.765Z,758
2014-08-05T12:30:54.093Z,760
2014-08-05T12:31:12.437Z,759
2014-08-05T12:31:30.767Z,761
2014-08-05T12:31:49.110Z,762
2014-08-05T12:32:07.439Z,763
2014-08-05T12:32:25.769Z,764
2014-08-05T12:32:44.097Z,766
2014-08-05T12:33:02.441Z,767
2014-08-05T12:33:20.771Z,767
2014-08-05T12:33:39.099Z,768
2014-08-05T12:33:57.427Z,770
2014-08-05T12:34:15.755Z,770
2014-08-05T12:34:34.101Z,771
2014-08-05T12:34:52.445Z,773
2014-08-05T12:35:10.773Z,774
2014-08-05T12:35:29.103Z,774
2014-08-05T12:35:47.447Z,774
2014-08-05T12:36:05.775Z,774
2014-08-05T12:36:24.105Z,774
2014-08-05T12:36:42.433Z,774
2014-08-05T12:37:00.777Z,774
2014-08-05T12:37:19.105Z,774
2014-08-05T12:37:37.451Z,774
2014-08-05T12:37:55.779Z,775
2014-08-05T12:38:14.107Z,775
2014-08-05T12:38:32.453Z,776
2014-08-05T12:38:50.781Z,776
2014-08-05T12:39:09.109Z,776
2014-08-05T12:39:27.455Z,775
2014-08-05T12:39:45.783Z,775
2014-08-05T12:40:04.111Z,776
2014-08-05T12:40:22.455Z,776
2014-08-05T12:40:40.988Z,776
2014-08-05T12:40:59.113Z,776
2014-08-05T12:41:17.441Z,776
2014-08-05T12:41:35.771Z,776
2014-08-05T12:41:54.115Z,776
2014-08-05T12:42:12.443Z,776
2014-08-05T12:42:30.773Z,776
2014-08-05T12:42:49.117Z,776
2014-08-05T12:43:07.445Z,776
2014-08-05T12:43:25.773Z,777
2014-08-05T12:43:44.103Z,776
2014-08-05T12:44:02.431Z,776
2014-08-05T12:44:20.759Z,776
2014-08-05T12:44:39.293Z,776
2014-08-05T12:44:57.433Z,776
2014-08-05T12:45:15.761Z,776
2014-08-05T12:45:34.092Z,776
2014-08-05T12:45:52.435Z,776
2014-08-05T12:46:10.967Z,776
2014-08-05T12:46:29.092Z,775
2014-08-05T12:46:47.422Z,775
2014-08-05T12:47:05.765Z,775
2014-08-05T12:47:24.094Z,774
2014-08-05T12:47:42.424Z,774
2014-08-05T12:48:00.752Z,774
2014-08-05T12:48:19.080Z,774
2014-08-05T12:48:37.424Z,774
2014-08-05T12:48:55.754Z,774
2014-08-05T12:49:14.082Z,774
2014-08-05T12:49:32.426Z,774
2014-08-05T12:49:50.756Z,774
2014-08-05T12:50:09.084Z,774
2014-08-05T12:50:27.428Z,776
2014-08-05T12:50:45.756Z,774
2014-08-05T12:51:04.102Z,774
2014-08-05T12:51:22.430Z,775
2014-08-05T12:51:40.961Z,775
2014-08-05T12:51:59.088Z,775
2014-08-05T12:52:17.432Z,775
2014-08-05T12:52:35.760Z,778
2014-08-05T12:52:54.090Z,775
2014-08-05T12:53:12.434Z,774
2014-08-05T12:53:30.762Z,774
2014-08-05T12:53:49.090Z,775
2014-08-05T12:54:07.435Z,775
2014-08-05T12:54:25.763Z,774
2014-08-05T12:54:44.091Z,775
2014-08-05T12:55:02.438Z,775
2014-08-05T12:55:20.766Z,775
2014-08-05T12:55:39.297Z,774
2014-08-05T12:55:57.407Z,775
2014-08-05T12:56:15.767Z,774
2014-08-05T12:56:34.095Z,775
2014-08-05T12:56:52.423Z,774
2014-08-05T12:57:10.769Z,774
2014-08-05T12:57:29.097Z,775
2014-08-05T12:57:47.441Z,775
2014-08-05T12:58:05.771Z,774
2014-08-05T12:58:24.099Z,774
2014-08-05T12:58:42.427Z,774
2014-08-05T12:59:00.774Z,774
2014-08-05T12:59:19.102Z,775
2014-08-05T12:59:37.430Z,775
2014-08-05T12:59:55.758Z,775
2014-08-05T13:00:14.104Z,775
2014-08-05T13:00:32.432Z,775
2014-08-05T13:00:50.760Z,775
2014-08-05T13:01:09.292Z,775
2014-08-05T13:01:27.433Z,775
2014-08-05T13:01:45.761Z,775
2014-08-05T13:02:04.092Z,773
2014-08-05T13:02:22.420Z,774
2014-08-05T13:02:40.749Z,777
2014-08-05T13:02:59.092Z,777
2014-08-05T13:03:17.422Z,777
2014-08-05T13:03:35.751Z,776
2014-08-05T13:03:54.094Z,776
2014-08-05T13:04:12.424Z,776
2014-08-05T13:04:30.753Z,776
2014-08-05T13:04:49.096Z,777
2014-08-05T13:05:07.425Z,777
2014-08-05T13:05:25.754Z,778
2014-08-05T13:05:44.082Z,781
2014-08-05T13:06:02.425Z,1019
2014-08-05T13:06:20.756Z,898
2014-08-05T13:06:39.084Z,1018
2014-08-05T13:06:57.427Z,991
2014-08-05T13:07:15.758Z,1000
2014-08-05T13:07:34.086Z,1000
2014-08-05T13:07:52.429Z,996
2014-08-05T13:08:10.758Z,991
2014-08-05T13:08:29.089Z,998
2014-08-05T13:08:47.417Z,1002
2014-08-05T13:09:05.761Z,1002
2014-08-05T13:09:24.091Z,996
2014-08-05T13:09:42.419Z,1003
2014-08-05T13:10:00.966Z,995